Time;durP1;ratioP1;P1;durP2;ratioP2;P2;SDS_P1;SDS_P2;PMS_P1;PMS_P2;Temp;Humidity;BMP_temperature;BMP_pressure;BME280_temperature;BME280_humidity;BME280_pressure;Samples;Min_cycle;Max_cycle;Signal;HPM_P1;HPM_P2
2023/01/29 00:03:40;;;;;;;30.30;27.00;;;22.70;59.00;;;;;;222228;1264;25338;-49
2023/01/29 00:08:45;;;;;;;30.10;26.50;;;22.50;59.50;;;;;;222096;1257;22648;-48
2023/01/29 00:13:50;;;;;;;29.20;25.00;;;22.40;60.00;;;;;;222151;1260;25474;-50
2023/01/29 00:18:54;;;;;;;30.20;25.80;;;22.40;60.60;;;;;;222376;1260;23008;-47
2023/01/29 00:23:59;;;;;;;29.10;25.30;;;22.50;60.70;;;;;;222187;1264;24222;-46
2023/01/29 00:29:04;;;;;;;28.00;25.10;;;22.50;60.30;;;;;;222332;1264;24206;-50
2023/01/29 00:34:08;;;;;;;29.90;26.60;;;22.40;60.70;;;;;;222342;1248;24215;-48
2023/01/29 00:39:13;;;;;;;30.60;25.70;;;22.40;60.60;;;;;;222278;1266;22520;-47
2023/01/29 00:49:40;;;;;;;28.10;25.20;;;22.40;59.90;;;;;;222107;1263;22649;-48
2023/01/29 00:54:44;;;;;;;26.60;23.80;;;22.30;59.80;;;;;;222309;1269;22537;-48
2023/01/29 00:59:48;;;;;;;25.00;22.50;;;22.20;59.90;;;;;;222357;1263;22558;-48
2023/01/29 01:04:53;;;;;;;25.00;22.40;;;22.10;60.60;;;;;;222519;1263;26485;-51
2023/01/29 01:15:23;;;;;;;21.80;19.10;;;22.10;60.10;;;;;;222374;1254;25419;-49
2023/01/29 01:20:29;;;;;;;23.70;21.20;;;22.00;60.30;;;;;;222401;1267;25314;-47
2023/01/29 01:25:33;;;;;;;22.80;20.50;;;22.10;60.00;;;;;;222405;1260;25598;-49
2023/01/29 01:30:38;;;;;;;25.40;19.80;;;22.10;59.40;;;;;;222234;1254;22647;-50
2023/01/29 01:35:43;;;;;;;20.90;18.50;;;22.10;59.40;;;;;;222298;1269;22524;-52
2023/01/29 01:40:47;;;;;;;21.20;19.00;;;22.00;59.00;;;;;;222210;1259;22669;-52
2023/01/29 01:45:52;;;;;;;20.70;18.70;;;22.00;59.00;;;;;;223984;1267;22622;-50
2023/01/29 01:51:03;;;;;;;20.80;18.30;;;22.00;58.80;;;;;;222019;1254;22539;-49
2023/01/29 01:56:14;;;;;;;19.80;17.80;;;22.00;58.90;;;;;;223827;1269;22618;-51
2023/01/29 02:01:27;;;;;;;20.20;18.10;;;22.00;58.40;;;;;;222105;1267;23015;-55
2023/01/29 02:11:55;;;;;;;19.00;17.00;;;21.90;58.10;;;;;;222318;1264;197600;-50
2023/01/29 02:17:00;;;;;;;18.20;16.20;;;21.90;58.00;;;;;;221931;1264;22588;-49
2023/01/29 02:22:27;;;;;;;18.20;16.30;;;21.80;58.00;;;;;;229423;1263;22524;-49
2023/01/29 02:27:55;;;;;;;18.50;15.50;;;21.80;58.00;;;;;;229745;1266;25676;-49
2023/01/29 02:33:10;;;;;;;17.50;15.60;;;22.00;57.60;;;;;;222320;1264;22557;-49
2023/01/29 02:38:36;;;;;;;17.00;15.10;;;22.30;57.00;;;;;;222152;1257;23017;-52
2023/01/29 02:43:47;;;;;;;16.10;14.50;;;22.40;57.20;;;;;;222414;1263;25332;-49
2023/01/29 02:49:30;;;;;;;16.40;14.70;;;22.50;56.60;;;;;;222020;1264;25948;-51
2023/01/29 02:54:41;;;;;;;16.30;14.50;;;22.60;56.30;;;;;;221816;1266;22539;-49
2023/01/29 03:00:28;;;;;;;16.20;14.00;;;22.90;55.60;;;;;;222023;1264;25439;-47
2023/01/29 03:05:43;;;;;;;15.00;13.50;;;23.00;55.00;;;;;;228497;1278;22183;-48
2023/01/29 03:10:55;;;;;;;14.30;12.70;;;23.30;54.40;;;;;;228492;1272;22214;-50
2023/01/29 03:16:27;;;;;;;14.20;12.40;;;23.40;53.80;;;;;;222858;1276;22591;-53
2023/01/29 03:22:00;;;;;;;12.90;11.60;;;23.40;53.80;;;;;;220970;1272;22553;-50
2023/01/29 03:32:34;;;;;;;14.00;12.60;;;23.10;54.50;;;;;;220930;1267;24107;-51
2023/01/29 03:37:47;;;;;;;13.20;11.90;;;23.00;54.40;;;;;;222461;1269;22608;-48
2023/01/29 03:43:09;;;;;;;13.40;12.00;;;23.00;54.80;;;;;;222136;1248;24206;-52
2023/01/29 03:48:28;;;;;;;12.90;11.70;;;23.10;54.30;;;;;;222448;1254;24056;-49
2023/01/29 03:53:55;;;;;;;12.80;11.60;;;23.10;54.20;;;;;;222243;1269;25799;-48
2023/01/29 03:59:14;;;;;;;12.80;11.50;;;23.00;54.50;;;;;;222259;1266;26277;-48
2023/01/29 04:04:52;;;;;;;11.40;10.40;;;23.00;54.50;;;;;;221870;1254;22577;-52
2023/01/29 04:10:02;;;;;;;11.90;10.80;;;23.00;54.50;;;;;;222102;1269;22868;-51
2023/01/29 04:15:14;;;;;;;11.20;10.20;;;23.00;54.60;;;;;;222494;1263;25484;-52
2023/01/29 04:20:20;;;;;;;11.80;10.60;;;23.00;54.50;;;;;;222116;1269;25563;-53
2023/01/29 04:25:29;;;;;;;11.90;10.60;;;23.00;54.30;;;;;;222381;1269;25432;-50
2023/01/29 04:30:50;;;;;;;11.30;10.30;;;23.10;54.20;;;;;;222208;1267;22746;-51
2023/01/29 04:36:24;;;;;;;10.50;9.60;;;23.10;54.50;;;;;;222382;1269;23887;-49
2023/01/29 04:41:50;;;;;;;10.80;9.80;;;23.10;54.30;;;;;;222107;1266;25455;-49
2023/01/29 04:47:13;;;;;;;11.20;10.00;;;23.10;54.20;;;;;;222449;1256;24206;-50
2023/01/29 04:52:31;;;;;;;9.90;9.00;;;23.10;54.00;;;;;;222452;1254;24639;-51
2023/01/29 04:57:42;;;;;;;10.30;9.20;;;23.10;54.00;;;;;;222143;1264;22578;-52
2023/01/29 05:02:47;;;;;;;9.50;8.70;;;23.20;54.20;;;;;;225244;1269;24204;-52
2023/01/29 05:07:52;;;;;;;9.40;8.50;;;23.30;53.40;;;;;;221815;1255;22530;-51
2023/01/29 05:13:04;;;;;;;9.30;8.40;;;23.30;53.50;;;;;;223455;1266;24311;-52
2023/01/29 05:18:09;;;;;;;;;;;23.30;53.50;;;;;;222530;1266;25884;-52
2023/01/29 05:23:18;;;;;;;8.90;8.10;;;23.30;53.60;;;;;;222288;1266;22610;-50
2023/01/29 05:28:22;;;;;;;8.70;7.90;;;23.30;53.30;;;;;;222158;1263;24237;-50
2023/01/29 05:33:30;;;;;;;8.30;7.50;;;23.30;53.50;;;;;;222411;1256;24289;-52
2023/01/29 05:38:34;;;;;;;8.30;7.60;;;23.20;53.50;;;;;;222155;1263;25422;-49
2023/01/29 05:43:40;;;;;;;8.50;7.70;;;23.30;53.50;;;;;;222395;1247;22591;-53
2023/01/29 05:48:43;;;;;;;8.00;7.20;;;23.30;53.30;;;;;;222339;1263;26632;-48
2023/01/29 05:53:48;;;;;;;7.80;7.20;;;23.30;53.30;;;;;;222330;1264;24216;-50
2023/01/29 05:58:52;;;;;;;8.10;7.40;;;23.30;53.20;;;;;;222096;1256;23496;-52
2023/01/29 06:03:56;;;;;;;7.90;7.20;;;23.40;53.10;;;;;;222283;1260;22527;-49
2023/01/29 06:09:00;;;;;;;7.70;7.00;;;23.40;53.20;;;;;;222260;1259;22533;-50
2023/01/29 06:14:04;;;;;;;7.90;7.20;;;23.40;52.80;;;;;;222338;1264;22638;-50
2023/01/29 06:19:08;;;;;;;7.40;6.70;;;23.40;52.70;;;;;;222278;1257;22691;-50
2023/01/29 06:24:13;;;;;;;7.60;6.90;;;23.50;52.60;;;;;;222329;1266;22701;-52
2023/01/29 06:29:17;;;;;;;7.50;6.80;;;23.50;52.60;;;;;;222091;1256;22565;-48
2023/01/29 06:34:21;;;;;;;7.10;6.50;;;23.50;53.00;;;;;;222362;1263;22525;-49
2023/01/29 06:39:25;;;;;;;7.20;6.60;;;23.50;52.70;;;;;;222416;1262;24215;-51
2023/01/29 06:44:29;;;;;;;7.10;6.50;;;23.50;52.50;;;;;;222421;1259;22527;-53
2023/01/29 06:49:33;;;;;;;7.30;6.60;;;23.40;52.60;;;;;;222234;1269;24212;-50
2023/01/29 06:54:38;;;;;;;6.30;5.80;;;23.50;52.50;;;;;;222374;1269;24237;-52
2023/01/29 06:59:42;;;;;;;7.20;6.50;;;23.60;52.50;;;;;;222390;1256;22967;-50
2023/01/29 07:04:46;;;;;;;7.20;6.50;;;23.60;52.80;;;;;;222389;1266;22543;-50
2023/01/29 07:09:50;;;;;;;6.80;6.20;;;23.60;52.50;;;;;;222349;1246;24251;-51
2023/01/29 07:14:54;;;;;;;6.50;6.00;;;23.50;52.50;;;;;;222385;1258;22523;-52
2023/01/29 07:19:58;;;;;;;6.10;5.60;;;23.70;52.20;;;;;;222388;1263;22536;-51
2023/01/29 07:25:03;;;;;;;5.90;5.20;;;23.50;52.30;;;;;;222160;1263;24199;-50
2023/01/29 07:30:08;;;;;;;6.30;5.80;;;23.40;52.40;;;;;;222449;1263;22577;-51
2023/01/29 07:35:12;;;;;;;5.50;5.00;;;23.30;52.20;;;;;;222156;1264;22532;-51
2023/01/29 07:40:16;;;;;;;5.60;5.20;;;23.10;53.10;;;;;;222236;1269;22551;-51
2023/01/29 07:45:20;;;;;;;5.90;5.00;;;23.00;53.80;;;;;;222407;1256;22657;-52
2023/01/29 07:50:26;;;;;;;6.00;5.50;;;22.80;53.30;;;;;;222363;1269;23984;-50
2023/01/29 07:55:30;;;;;;;5.90;5.30;;;22.80;53.50;;;;;;222297;1262;24241;-49
2023/01/29 08:00:34;;;;;;;6.00;5.10;;;22.70;53.60;;;;;;222202;1259;22536;-51
2023/01/29 08:05:38;;;;;;;6.00;5.40;;;22.50;54.40;;;;;;222274;1266;22633;-48
2023/01/29 08:10:42;;;;;;;7.70;5.20;;;22.30;54.50;;;;;;222311;1262;27208;-51
2023/01/29 08:15:46;;;;;;;6.60;5.40;;;22.20;54.90;;;;;;222315;1263;22620;-51
2023/01/29 08:20:50;;;;;;;5.80;4.70;;;22.10;55.10;;;;;;222270;1269;25304;-52
2023/01/29 08:25:55;;;;;;;9.50;5.40;;;22.10;55.10;;;;;;222286;1254;22536;-49
2023/01/29 08:31:00;;;;;;;6.70;5.10;;;22.00;55.20;;;;;;222280;1268;24227;-52
2023/01/29 08:36:06;;;;;;;12.40;5.70;;;22.00;55.30;;;;;;222072;1256;26613;-51
2023/01/29 08:41:10;;;;;;;5.70;5.20;;;21.90;55.30;;;;;;222027;1260;23265;-48
2023/01/29 08:46:15;;;;;;;6.80;5.20;;;21.90;55.20;;;;;;222251;1258;22564;-51
2023/01/29 08:51:20;;;;;;;10.40;4.80;;;22.00;54.80;;;;;;222241;1259;24024;-50
2023/01/29 08:56:24;;;;;;;13.90;4.80;;;21.90;54.90;;;;;;222129;1259;25622;-50
2023/01/29 09:01:27;;;;;;;11.30;4.70;;;21.80;54.90;;;;;;222131;1254;24310;-50
2023/01/29 09:06:32;;;;;;;8.10;5.20;;;21.70;55.20;;;;;;221841;1257;25294;-51
2023/01/29 09:11:37;;;;;;;6.80;4.80;;;21.80;55.20;;;;;;222052;1262;25291;-46
2023/01/29 09:16:41;;;;;;;7.10;4.80;;;21.90;54.90;;;;;;221871;1263;22660;-47
2023/01/29 09:21:46;;;;;;;8.50;4.50;;;22.30;53.70;;;;;;221895;1263;22653;-46
2023/01/29 09:26:50;;;;;;;7.90;4.90;;;22.70;54.00;;;;;;221958;1247;25505;-50
2023/01/29 09:31:53;;;;;;;11.10;5.30;;;22.90;52.90;;;;;;222215;1254;22541;-49
2023/01/29 09:36:58;;;;;;;8.80;4.90;;;23.00;53.30;;;;;;222014;1262;22652;-50
2023/01/29 09:42:24;;;;;;;11.40;4.70;;;23.10;52.30;;;;;;222007;1250;22521;-48
2023/01/29 09:47:32;;;;;;;6.40;4.20;;;23.10;51.40;;;;;;221932;1257;24196;-53
2023/01/29 09:52:46;;;;;;;5.10;3.80;;;23.30;50.30;;;;;;222120;1262;22543;-53
2023/01/29 09:58:06;;;;;;;4.50;4.00;;;23.10;51.00;;;;;;221889;1259;25620;-54
2023/01/29 10:03:30;;;;;;;9.50;4.10;;;23.10;51.20;;;;;;222281;1269;22539;-53
2023/01/29 10:09:00;;;;;;;5.50;4.00;;;23.10;51.50;;;;;;221934;1269;22566;-51
2023/01/29 10:14:21;;;;;;;5.90;4.30;;;23.20;52.00;;;;;;222217;1254;24209;-50
2023/01/29 10:19:43;;;;;;;4.50;3.80;;;23.20;51.50;;;;;;222024;1248;23116;-51
2023/01/29 10:24:56;;;;;;;4.80;4.00;;;23.40;51.30;;;;;;222071;1263;24274;-50
2023/01/29 10:30:05;;;;;;;5.70;3.80;;;23.40;51.60;;;;;;222081;1256;24803;-51
2023/01/29 10:35:15;;;;;;;9.30;3.70;;;23.40;51.30;;;;;;222185;1248;24344;-51
2023/01/29 10:40:26;;;;;;;14.10;3.90;;;23.40;51.10;;;;;;222185;1257;22542;-51
2023/01/29 10:45:56;;;;;;;7.30;3.50;;;23.20;52.00;;;;;;222068;1246;24197;-55
2023/01/29 10:51:21;;;;;;;6.80;3.80;;;23.10;52.10;;;;;;222077;1259;24216;-55
2023/01/29 10:56:41;;;;;;;9.00;3.60;;;23.00;52.50;;;;;;221997;1254;22657;-52
2023/01/29 11:01:48;;;;;;;7.60;3.90;;;23.00;53.10;;;;;;221818;1256;24238;-50
2023/01/29 11:06:53;;;;;;;14.00;3.70;;;22.80;53.50;;;;;;221836;1260;22737;-46
2023/01/29 11:12:18;;;;;;;6.70;4.20;;;22.70;53.60;;;;;;222040;1256;22538;-46
2023/01/29 11:17:25;;;;;;;8.60;3.80;;;22.60;53.30;;;;;;222031;1250;24200;-47
2023/01/29 11:22:30;;;;;;;6.60;3.80;;;22.50;52.40;;;;;;221990;1246;24334;-49
2023/01/29 11:27:45;;;;;;;8.40;4.00;;;22.50;52.40;;;;;;223023;1269;25958;-47
2023/01/29 11:32:58;;;;;;;15.50;4.00;;;22.50;52.40;;;;;;221967;1263;23655;-51
2023/01/29 11:38:15;;;;;;;11.60;3.80;;;22.40;52.70;;;;;;222234;1263;24191;-49
2023/01/29 11:43:31;;;;;;;11.60;3.70;;;22.40;52.90;;;;;;222260;1263;23012;-50
2023/01/29 11:48:50;;;;;;;13.50;4.40;;;22.50;52.80;;;;;;222127;1262;22971;-46
2023/01/29 11:53:59;;;;;;;7.50;3.90;;;22.40;53.60;;;;;;222323;1266;22602;-50
2023/01/29 11:59:04;;;;;;;7.40;3.90;;;22.30;53.00;;;;;;222249;1257;24209;-50
2023/01/29 12:04:20;;;;;;;9.50;3.60;;;22.20;53.00;;;;;;222423;1266;22626;-46
2023/01/29 12:09:27;;;;;;;8.20;3.60;;;22.10;53.60;;;;;;222483;1256;22781;-49
2023/01/29 12:14:33;;;;;;;9.20;3.80;;;22.00;53.60;;;;;;222432;1263;24187;-47
2023/01/29 12:19:46;;;;;;;8.00;4.10;;;22.10;53.80;;;;;;222369;1257;27613;-50
2023/01/29 12:25:03;;;;;;;7.70;3.20;;;22.00;53.70;;;;;;222401;1266;24080;-46
2023/01/29 12:30:33;;;;;;;17.60;4.30;;;21.90;53.50;;;;;;222063;1262;22551;-50
2023/01/29 12:35:47;;;;;;;12.60;4.00;;;21.90;53.80;;;;;;222367;1257;22768;-49
2023/01/29 12:40:59;;;;;;;15.90;3.60;;;22.00;53.60;;;;;;222331;1269;26622;-51
2023/01/29 12:46:07;;;;;;;;;;;21.90;53.90;;;;;;222489;1256;22757;-46
2023/01/29 12:51:19;;;;;;;10.30;4.10;;;21.80;54.00;;;;;;222211;1263;24322;-47
2023/01/29 12:56:35;;;;;;;8.30;3.80;;;21.80;54.10;;;;;;222282;1269;22639;-46
2023/01/29 13:01:57;;;;;;;19.20;4.20;;;22.20;53.00;;;;;;222332;1254;22532;-49
2023/01/29 13:07:18;;;;;;;6.70;3.50;;;22.60;52.70;;;;;;222351;1254;25266;-49
2023/01/29 13:12:23;;;;;;;9.70;3.60;;;22.70;52.00;;;;;;222329;1256;24437;-49
2023/01/29 13:17:50;;;;;;;8.80;3.40;;;22.80;52.20;;;;;;222415;1263;22579;-48
2023/01/29 13:23:00;;;;;;;12.10;3.90;;;22.90;51.90;;;;;;222408;1255;22527;-47
2023/01/29 13:28:04;;;;;;;4.70;3.40;;;23.10;51.00;;;;;;222362;1269;24746;-48
2023/01/29 13:33:22;;;;;;;9.60;3.90;;;23.20;51.30;;;;;;222340;1257;22530;-50
2023/01/29 13:38:32;;;;;;;4.60;3.30;;;23.20;51.00;;;;;;222230;1263;22517;-49
2023/01/29 13:43:40;;;;;;;11.20;3.80;;;23.30;51.00;;;;;;222517;1256;22535;-47
2023/01/29 13:48:47;;;;;;;3.50;3.10;;;23.20;51.00;;;;;;221917;1265;24177;-47
2023/01/29 13:54:15;;;;;;;6.50;3.50;;;23.20;50.70;;;;;;230245;1263;22324;-47
2023/01/29 13:59:23;;;;;;;9.30;4.40;;;23.30;50.50;;;;;;224023;1252;22670;-46
2023/01/29 14:04:30;;;;;;;12.20;4.20;;;23.50;50.20;;;;;;229575;1253;22890;-50
2023/01/29 14:09:37;;;;;;;9.90;4.30;;;23.40;50.20;;;;;;223946;1269;22531;-46
2023/01/29 14:14:50;;;;;;;8.80;4.40;;;23.50;50.60;;;;;;221786;1259;218316;-49
2023/01/29 14:20:16;;;;;;;7.50;4.10;;;23.30;50.50;;;;;;222002;1256;22649;-46
2023/01/29 14:25:27;;;;;;;8.50;4.30;;;23.30;50.60;;;;;;222103;1258;24341;-49
2023/01/29 14:30:33;;;;;;;10.60;4.00;;;23.30;50.60;;;;;;222095;1263;24206;-48
2023/01/29 14:35:47;;;;;;;10.00;4.00;;;23.40;50.40;;;;;;221853;1263;22741;-49
2023/01/29 14:41:03;;;;;;;10.10;5.10;;;23.40;50.10;;;;;;222060;1256;26573;-48
2023/01/29 14:46:33;;;;;;;14.60;5.40;;;23.40;50.50;;;;;;221902;1260;22528;-47
2023/01/29 14:51:42;;;;;;;15.40;6.20;;;23.50;51.20;;;;;;222083;1266;25381;-49
2023/01/29 14:56:58;;;;;;;13.30;5.00;;;23.50;51.20;;;;;;222041;1253;22543;-47
2023/01/29 15:02:25;;;;;;;12.40;5.90;;;23.50;51.40;;;;;;222059;1253;22649;-47
2023/01/29 15:07:36;;;;;;;11.60;5.40;;;23.40;51.20;;;;;;221922;1264;22533;-49
2023/01/29 15:12:51;;;;;;;12.70;5.20;;;23.30;51.60;;;;;;222044;1260;24790;-49
2023/01/29 15:18:08;;;;;;;14.60;5.70;;;23.30;51.70;;;;;;222078;1263;22542;-47
2023/01/29 15:23:31;;;;;;;14.40;6.40;;;23.10;52.00;;;;;;222062;1256;25089;-45
2023/01/29 15:28:36;;;;;;;20.20;5.90;;;23.00;53.90;;;;;;221896;1264;22545;-46
2023/01/29 15:33:45;;;;;;;13.90;6.30;;;23.00;54.30;;;;;;222084;1262;25379;-45
2023/01/29 15:39:08;;;;;;;20.60;6.20;;;22.90;54.30;;;;;;222154;1263;22647;-50
2023/01/29 15:44:15;;;;;;;17.10;6.30;;;23.10;54.10;;;;;;222072;1256;22535;-51
2023/01/29 15:49:34;;;;;;;17.40;6.50;;;22.90;53.90;;;;;;222071;1264;25485;-52
2023/01/29 15:54:40;;;;;;;13.60;5.70;;;22.90;53.90;;;;;;222116;1259;25543;-48
2023/01/29 15:59:50;;;;;;;15.80;6.30;;;22.90;53.60;;;;;;222275;1260;23883;-45
2023/01/29 16:04:56;;;;;;;14.30;5.40;;;22.70;54.40;;;;;;222117;1263;22565;-45
2023/01/29 16:10:01;;;;;;;18.70;6.10;;;22.70;54.10;;;;;;221981;1266;22530;-49
2023/01/29 16:15:19;;;;;;;18.80;5.90;;;22.60;55.00;;;;;;221855;1262;22524;-50
2023/01/29 16:20:45;;;;;;;20.20;6.20;;;22.60;55.30;;;;;;221521;1256;25475;-49
2023/01/29 16:25:51;;;;;;;12.60;5.50;;;22.60;55.10;;;;;;222295;1255;24246;-51
2023/01/29 16:31:01;;;;;;;10.40;5.40;;;22.50;55.00;;;;;;222243;1259;22531;-47
2023/01/29 16:36:23;;;;;;;13.00;4.90;;;22.50;54.40;;;;;;222219;1261;25413;-50
2023/01/29 16:41:37;;;;;;;14.80;5.60;;;22.40;55.00;;;;;;224463;1268;22538;-46
2023/01/29 16:46:51;;;;;;;8.60;5.60;;;22.50;54.40;;;;;;221599;1267;22692;-48
2023/01/29 16:52:25;;;;;;;11.10;5.40;;;22.30;54.30;;;;;;221056;1269;22729;-47
2023/01/29 16:57:32;;;;;;;8.40;5.00;;;22.10;54.70;;;;;;221217;1261;23005;-48
2023/01/29 17:02:43;;;;;;;7.30;5.30;;;22.00;54.60;;;;;;222290;1262;24034;-47
2023/01/29 17:07:50;;;;;;;7.90;4.70;;;21.90;54.50;;;;;;222234;1266;22543;-47
2023/01/29 17:13:09;;;;;;;10.10;5.60;;;22.00;54.10;;;;;;221055;1268;22579;-48
2023/01/29 17:18:22;;;;;;;7.40;4.70;;;21.80;54.70;;;;;;221075;1269;25515;-48
2023/01/29 17:29:59;;;;;;;7.90;5.20;;;21.70;54.30;;;;;;220966;1269;22544;-49
2023/01/29 17:35:06;;;;;;;;;;;21.60;54.10;;;;;;220887;1274;22702;-48
2023/01/29 17:40:53;;;;;;;8.40;5.10;;;21.50;54.20;;;;;;219849;1273;24359;-47
2023/01/29 17:46:03;;;;;;;8.40;5.50;;;21.50;54.10;;;;;;220829;1274;24199;-46
2023/01/29 17:51:14;;;;;;;7.30;4.80;;;21.50;53.70;;;;;;221112;1269;22529;-47
2023/01/29 17:56:31;;;;;;;7.70;4.80;;;21.40;54.80;;;;;;221051;1273;22545;-49
2023/01/29 18:01:40;;;;;;;6.50;4.40;;;21.40;54.50;;;;;;221201;1262;25450;-46
2023/01/29 18:06:49;;;;;;;8.00;4.60;;;21.40;54.80;;;;;;222083;1265;25474;-48
2023/01/29 18:11:58;;;;;;;5.60;4.60;;;21.70;54.30;;;;;;221973;1268;22532;-49
2023/01/29 18:17:04;;;;;;;7.00;4.70;;;21.90;53.70;;;;;;221958;1263;22531;-47
2023/01/29 18:22:12;;;;;;;10.00;4.70;;;22.20;54.00;;;;;;221841;1264;24205;-48
2023/01/29 18:27:18;;;;;;;11.00;4.90;;;22.40;54.10;;;;;;221877;1260;25519;-47
2023/01/29 18:32:24;;;;;;;18.00;5.40;;;22.60;53.60;;;;;;221943;1260;22720;-47
2023/01/29 18:37:31;;;;;;;17.60;5.90;;;22.60;53.80;;;;;;221702;1265;22598;-45
2023/01/29 18:42:42;;;;;;;16.40;7.30;;;22.60;54.50;;;;;;221946;1269;22668;-47
2023/01/29 18:47:48;;;;;;;17.30;6.40;;;22.70;54.90;;;;;;222167;1265;22554;-47
2023/01/29 18:52:54;;;;;;;18.70;5.90;;;22.80;54.50;;;;;;222249;1258;24215;-47
2023/01/29 18:58:00;;;;;;;16.20;6.10;;;22.70;54.00;;;;;;222144;1258;23912;-46
2023/01/29 19:03:27;;;;;;;14.50;5.60;;;22.70;54.10;;;;;;222480;1253;24286;-46
2023/01/29 19:08:33;;;;;;;23.40;5.10;;;22.80;54.00;;;;;;222514;1260;25379;-47
2023/01/29 19:13:41;;;;;;;12.10;5.20;;;22.70;54.10;;;;;;222299;1260;22579;-45
2023/01/29 19:18:47;;;;;;;9.90;4.50;;;22.80;54.50;;;;;;222111;1260;25444;-46
2023/01/29 19:23:57;;;;;;;14.40;4.70;;;22.90;54.10;;;;;;221712;1254;24242;-46
2023/01/29 19:29:03;;;;;;;8.60;5.20;;;23.00;53.50;;;;;;222175;1254;25425;-45
2023/01/29 19:34:09;;;;;;;18.60;5.30;;;22.90;53.80;;;;;;222322;1264;22602;-46
2023/01/29 19:39:15;;;;;;;13.10;4.70;;;23.00;54.50;;;;;;222092;1263;26552;-45
2023/01/29 19:44:21;;;;;;;10.00;5.00;;;23.00;53.80;;;;;;222237;1263;22628;-49
2023/01/29 19:49:26;;;;;;;6.80;4.50;;;23.10;54.30;;;;;;222343;1264;24229;-46
2023/01/29 19:54:32;;;;;;;8.70;4.30;;;23.10;53.80;;;;;;222253;1264;24298;-46
2023/01/29 19:59:38;;;;;;;13.60;6.30;;;23.20;53.70;;;;;;222480;1254;22709;-47
2023/01/29 20:04:45;;;;;;;16.50;4.60;;;23.20;53.60;;;;;;222206;1264;22553;-46
2023/01/29 20:09:50;;;;;;;17.30;4.50;;;23.30;52.80;;;;;;222405;1263;24309;-47
2023/01/29 20:14:57;;;;;;;17.30;5.40;;;23.30;52.40;;;;;;222448;1266;22535;-43
2023/01/29 20:20:07;;;;;;;26.90;6.10;;;23.40;52.60;;;;;;222419;1254;22557;-46
2023/01/29 20:25:14;;;;;;;10.90;4.80;;;23.40;51.80;;;;;;222568;1264;26625;-46
2023/01/29 20:30:21;;;;;;;26.30;5.20;;;23.40;51.60;;;;;;222340;1264;22585;-46
2023/01/29 20:35:29;;;;;;;10.90;4.50;;;23.40;51.60;;;;;;222235;1267;22718;-45
2023/01/29 20:40:38;;;;;;;9.60;4.80;;;23.40;51.40;;;;;;222479;1263;25430;-45
2023/01/29 20:45:46;;;;;;;12.80;5.50;;;23.40;50.70;;;;;;222173;1260;22554;-45
2023/01/29 20:50:54;;;;;;;8.00;5.20;;;23.50;50.80;;;;;;222477;1248;23013;-44
2023/01/29 20:56:01;;;;;;;8.40;5.00;;;23.50;50.20;;;;;;222200;1263;22534;-46
2023/01/29 21:01:14;;;;;;;13.00;5.30;;;23.50;50.00;;;;;;222364;1261;22529;-45
2023/01/29 21:06:21;;;;;;;13.00;5.40;;;23.60;50.30;;;;;;222601;1269;22514;-47
2023/01/29 21:11:28;;;;;;;18.60;5.60;;;23.60;49.30;;;;;;222281;1264;25390;-48
2023/01/29 21:16:34;;;;;;;9.60;5.70;;;23.60;49.30;;;;;;222359;1259;22543;-46
2023/01/29 21:21:42;;;;;;;12.50;5.40;;;23.50;49.10;;;;;;222101;1255;22605;-50
2023/01/29 21:26:48;;;;;;;13.30;6.00;;;23.50;48.80;;;;;;222465;1260;22611;-51
2023/01/29 21:31:53;;;;;;;12.80;5.40;;;23.30;49.00;;;;;;222287;1254;25185;-49
2023/01/29 21:36:59;;;;;;;7.80;4.90;;;23.20;49.20;;;;;;222210;1257;23801;-53
2023/01/29 21:47:28;;;;;;;8.20;4.70;;;22.80;49.70;;;;;;222316;1257;25375;-50
2023/01/29 21:52:35;;;;;;;11.00;4.90;;;22.70;49.70;;;;;;222098;1260;23847;-52
2023/01/29 21:57:43;;;;;;;8.10;5.30;;;22.60;50.10;;;;;;222307;1264;24111;-52
2023/01/29 22:02:50;;;;;;;8.10;4.90;;;22.50;50.10;;;;;;222441;1254;22528;-51
2023/01/29 22:07:56;;;;;;;7.70;4.80;;;22.40;50.60;;;;;;222232;1263;24405;-48
2023/01/29 22:13:02;;;;;;;9.80;5.30;;;22.30;50.80;;;;;;222395;1257;23231;-52
2023/01/29 22:18:07;;;;;;;9.00;6.50;;;22.20;51.10;;;;;;222137;1254;24273;-50
2023/01/29 22:23:11;;;;;;;8.70;4.90;;;22.10;51.10;;;;;;222203;1254;22538;-49
2023/01/29 22:28:17;;;;;;;7.90;5.90;;;22.40;53.60;;;;;;222149;1266;23659;-51
2023/01/29 22:33:22;;;;;;;7.00;5.20;;;22.40;53.90;;;;;;222455;1254;22777;-51
2023/01/29 22:38:26;;;;;;;7.90;5.10;;;22.30;55.60;;;;;;222480;1267;22535;-51
2023/01/29 22:43:30;;;;;;;14.10;5.20;;;22.20;54.90;;;;;;222175;1247;23897;-52
2023/01/29 22:48:34;;;;;;;17.20;6.10;;;22.20;57.20;;;;;;222324;1263;22642;-51
2023/01/29 22:53:47;;;;;;;11.90;5.40;;;22.20;57.40;;;;;;222145;1263;22660;-50
2023/01/29 22:58:55;;;;;;;9.20;5.10;;;22.20;57.90;;;;;;222059;1260;25487;-51
2023/01/29 23:03:59;;;;;;;13.40;5.10;;;22.20;57.60;;;;;;221963;1248;24662;-48
2023/01/29 23:09:04;;;;;;;8.00;4.80;;;22.30;57.70;;;;;;224094;1248;22561;-52
2023/01/29 23:14:08;;;;;;;10.40;5.90;;;22.20;57.90;;;;;;222154;1246;24323;-52
2023/01/29 23:19:12;;;;;;;6.50;4.60;;;22.20;57.40;;;;;;222146;1263;22826;-51
2023/01/29 23:24:16;;;;;;;12.10;4.90;;;22.10;57.50;;;;;;222456;1254;22651;-46
2023/01/29 23:29:21;;;;;;;11.20;5.20;;;22.10;57.50;;;;;;222268;1263;22769;-52
2023/01/29 23:34:25;;;;;;;8.70;5.70;;;22.00;57.40;;;;;;222219;1263;23913;-52
2023/01/29 23:39:29;;;;;;;7.70;5.30;;;21.80;57.70;;;;;;222081;1246;24356;-51
2023/01/29 23:44:36;;;;;;;6.90;4.50;;;21.80;57.80;;;;;;222269;1256;22550;-51
2023/01/29 23:49:40;;;;;;;6.20;4.60;;;21.70;58.00;;;;;;222390;1255;22533;-54
2023/01/29 23:54:44;;;;;;;6.80;4.30;;;21.60;57.80;;;;;;222460;1269;22888;-50
2023/01/29 23:59:48;;;;;;;7.30;4.90;;;21.60;57.90;;;;;;222373;1266;24237;-48
